Time;durP1;ratioP1;P1;durP2;ratioP2;P2;SDS_P1;SDS_P2;PMS_P1;PMS_P2;Temp;Humidity;BMP_temperature;BMP_pressure;BME280_temperature;BME280_humidity;BME280_pressure;Samples;Min_cycle;Max_cycle;Signal;HPM_P1;HPM_P2
2022/08/21 00:00:54;;;;;;;4.55;2.95;;;;;;;14.21;100.00;101656.75;5078554;28;20024;-66
2022/08/21 00:03:19;;;;;;;3.33;2.70;;;;;;;14.17;100.00;101651.44;5057141;28;20097;-65
2022/08/21 00:05:49;;;;;;;5.80;3.67;;;;;;;14.13;100.00;101654.81;5085161;28;20023;-65
2022/08/21 00:08:16;;;;;;;4.45;3.40;;;;;;;14.10;100.00;101657.34;5087302;28;20074;-65
2022/08/21 00:10:42;;;;;;;4.57;2.88;;;;;;;14.06;100.00;101652.84;5085494;28;20027;-65
2022/08/21 00:13:08;;;;;;;4.53;3.20;;;;;;;14.02;100.00;101658.78;5087170;28;20098;-65
2022/08/21 00:15:35;;;;;;;4.72;3.35;;;;;;;13.99;100.00;101651.78;5085333;28;20139;-65
2022/08/21 00:18:02;;;;;;;5.85;3.03;;;;;;;13.97;100.00;101653.47;5086993;28;20052;-65
2022/08/21 00:20:27;;;;;;;5.88;3.20;;;;;;;13.93;100.00;101657.69;5069324;28;20025;-65
2022/08/21 00:22:52;;;;;;;3.47;2.83;;;;;;;13.91;100.00;101646.31;5085658;28;20031;-65
2022/08/21 00:25:19;;;;;;;3.83;2.97;;;;;;;13.89;100.00;101655.81;5087298;28;20376;-65
2022/08/21 00:27:46;;;;;;;3.42;2.80;;;;;;;13.87;100.00;101651.41;5075287;28;20032;-65
2022/08/21 00:30:13;;;;;;;4.15;2.92;;;;;;;13.84;100.00;101646.97;5067422;28;20020;-65
2022/08/21 00:32:39;;;;;;;4.40;2.55;;;;;;;13.81;100.00;101652.09;5068842;28;20035;-65
2022/08/21 00:35:07;;;;;;;4.40;2.97;;;;;;;13.76;100.00;101644.13;5071539;28;20036;-65
2022/08/21 00:37:33;;;;;;;5.25;2.80;;;;;;;13.72;100.00;101646.59;5071707;28;20008;-65
2022/08/21 00:39:58;;;;;;;5.38;3.30;;;;;;;13.75;100.00;101641.47;5075976;28;20035;-65
2022/08/21 00:42:23;;;;;;;4.05;3.20;;;;;;;13.76;100.00;101633.69;5091420;28;20268;-66
2022/08/21 00:44:49;;;;;;;4.25;3.45;;;;;;;13.77;100.00;101629.38;5091170;28;20032;-65
2022/08/21 00:47:16;;;;;;;5.18;3.25;;;;;;;13.77;100.00;101634.59;5090909;28;20027;-65
2022/08/21 00:49:42;;;;;;;5.93;3.80;;;;;;;13.75;100.00;101636.25;5091707;28;20066;-65
2022/08/21 00:52:13;;;;;;;4.88;4.00;;;;;;;13.72;100.00;101630.97;5091529;28;20462;-65
2022/08/21 00:54:41;;;;;;;5.68;4.05;;;;;;;13.73;100.00;101630.09;5079126;28;20468;-65
2022/08/21 00:57:15;;;;;;;7.57;4.35;;;;;;;13.69;100.00;101632.63;5090823;28;20027;-65
2022/08/21 00:59:45;;;;;;;5.22;3.90;;;;;;;13.69;100.00;101627.41;5091198;28;20035;-64
2022/08/21 01:02:11;;;;;;;3.90;3.60;;;;;;;13.66;100.00;101634.25;5081178;28;20544;-64
2022/08/21 01:04:37;;;;;;;4.07;3.67;;;;;;;13.64;100.00;101633.31;5090573;28;20113;-64
2022/08/21 01:07:03;;;;;;;5.25;4.22;;;;;;;13.61;100.00;101639.31;5086908;28;20059;-64
2022/08/21 01:09:28;;;;;;;5.72;3.97;;;;;;;13.58;100.00;101631.41;5091157;28;20452;-64
2022/08/21 01:11:54;;;;;;;6.47;4.25;;;;;;;13.54;100.00;101638.25;5091254;28;20038;-64
2022/08/21 01:14:19;;;;;;;5.03;4.22;;;;;;;13.52;100.00;101633.78;5091140;28;20027;-64
2022/08/21 01:16:48;;;;;;;4.70;4.20;;;;;;;13.50;100.00;101638.94;5090142;28;20499;-64
2022/08/21 01:19:16;;;;;;;5.25;4.60;;;;;;;13.47;100.00;101635.34;5085202;28;20504;-64
2022/08/21 01:21:42;;;;;;;5.43;4.30;;;;;;;13.42;100.00;101636.06;5089683;28;20027;-64
2022/08/21 01:24:08;;;;;;;6.78;4.25;;;;;;;13.40;100.00;101635.13;5091078;28;20027;-65
2022/08/21 01:26:35;;;;;;;6.43;4.35;;;;;;;13.38;100.00;101631.63;5090878;28;20031;-65
2022/08/21 01:29:31;;;;;;;8.68;5.50;;;;;;;13.38;100.00;101641.13;5090419;28;20032;-64
2022/08/21 01:31:59;;;;;;;7.18;4.88;;;;;;;13.35;100.00;101628.03;5069177;28;20028;-65
2022/08/21 01:34:24;;;;;;;8.27;4.50;;;;;;;13.34;100.00;101627.13;5090443;28;20024;-65
2022/08/21 01:36:50;;;;;;;5.43;4.28;;;;;;;13.33;100.00;101628.84;5080273;28;20031;-65
2022/08/21 01:39:15;;;;;;;4.97;4.47;;;;;;;13.33;100.00;101638.34;5076429;28;20021;-65
2022/08/21 01:41:41;;;;;;;8.77;5.20;;;;;;;13.30;100.00;101638.25;5085284;28;20627;-65
2022/08/21 01:44:06;;;;;;;5.18;4.65;;;;;;;13.29;100.00;101636.50;5090455;28;20036;-65
2022/08/21 01:46:32;;;;;;;6.80;4.85;;;;;;;13.26;100.00;101636.41;5087252;28;20060;-65
2022/08/21 01:48:57;;;;;;;7.78;4.22;;;;;;;13.23;100.00;101631.09;5084385;28;20024;-65
2022/08/21 01:51:23;;;;;;;6.05;5.32;;;;;;;13.19;100.00;101631.00;5076930;28;20051;-64
2022/08/21 01:53:48;;;;;;;6.93;5.18;;;;;;;13.17;100.00;101630.03;5090049;28;20020;-65
2022/08/21 01:56:14;;;;;;;5.40;4.75;;;;;;;13.16;100.00;101630.00;5090394;28;20483;-65
2022/08/21 01:58:42;;;;;;;6.78;4.97;;;;;;;13.13;100.00;101624.69;5090228;28;20027;-65
2022/08/21 02:01:09;;;;;;;5.47;4.68;;;;;;;13.11;100.00;101624.66;5081908;28;20086;-65
2022/08/21 02:03:34;;;;;;;6.80;5.10;;;;;;;13.13;100.00;101624.69;5083962;28;20032;-65
2022/08/21 02:06:00;;;;;;;7.28;5.18;;;;;;;13.12;100.00;101616.00;5089945;28;20481;-64
2022/08/21 02:08:27;;;;;;;5.43;4.85;;;;;;;13.12;100.00;101618.59;5081507;28;20459;-64
2022/08/21 02:10:52;;;;;;;5.75;4.55;;;;;;;13.11;100.00;101615.94;5087928;28;20020;-65
2022/08/21 02:13:18;;;;;;;6.60;4.72;;;;;;;13.08;100.00;101607.19;5090593;28;20119;-64
2022/08/21 02:15:43;;;;;;;5.60;4.82;;;;;;;13.04;100.00;101607.91;5089528;28;20371;-64
2022/08/21 02:18:10;;;;;;;5.65;4.60;;;;;;;13.03;100.00;101613.06;5090049;28;20028;-64
2022/08/21 02:20:39;;;;;;;5.18;4.30;;;;;;;12.99;100.00;101608.63;5090285;28;20081;-64
2022/08/21 02:23:06;;;;;;;4.78;4.28;;;;;;;12.96;100.00;101605.06;5089880;28;20067;-64
2022/08/21 02:25:31;;;;;;;4.97;4.50;;;;;;;12.94;100.00;101600.63;5089569;28;20067;-65
2022/08/21 02:27:58;;;;;;;5.47;4.30;;;;;;;12.92;100.00;101603.19;5089026;28;20510;-65
2022/08/21 02:30:27;;;;;;;5.95;4.30;;;;;;;12.91;100.00;101592.75;5090080;28;20032;-64
2022/08/21 02:32:53;;;;;;;5.07;4.57;;;;;;;12.89;100.00;101605.69;5089467;28;20539;-64
2022/08/21 02:35:19;;;;;;;5.07;4.57;;;;;;;12.86;100.00;101592.59;5089899;28;20031;-64
2022/08/21 02:37:51;;;;;;;4.50;3.95;;;;;;;12.84;100.00;101592.50;5089323;28;20035;-64
2022/08/21 02:40:19;;;;;;;5.25;4.75;;;;;;;12.85;100.00;101590.81;5089327;28;20483;-64
2022/08/21 02:42:44;;;;;;;9.15;5.03;;;;;;;12.83;100.00;101587.25;5089292;28;20048;-64
2022/08/21 02:45:11;;;;;;;6.88;4.60;;;;;;;12.83;100.00;101595.06;5088543;28;20574;-64
2022/08/21 02:47:37;;;;;;;6.13;4.03;;;;;;;12.86;100.00;101603.00;5089268;28;20085;-64
2022/08/21 02:50:03;;;;;;;6.47;4.93;;;;;;;12.87;100.00;101601.25;5079456;28;20052;-64
2022/08/21 02:52:29;;;;;;;6.70;5.22;;;;;;;12.83;100.00;101605.47;5089173;28;20468;-64
2022/08/21 02:54:54;;;;;;;7.35;6.05;;;;;;;12.76;100.00;101603.47;5088875;28;20080;-64
2022/08/21 02:57:19;;;;;;;7.57;5.97;;;;;;;12.68;100.00;101600.63;5089174;28;20078;-64
2022/08/21 02:59:44;;;;;;;8.32;6.80;;;;;;;12.63;100.00;101603.03;5089349;28;20108;-64
2022/08/21 03:02:11;;;;;;;8.75;6.90;;;;;;;12.60;100.00;101596.03;5089003;28;20379;-64
2022/08/21 03:04:36;;;;;;;8.10;6.82;;;;;;;12.61;100.00;101599.50;5088851;28;20359;-64
2022/08/21 03:07:02;;;;;;;7.22;6.63;;;;;;;12.57;100.00;101592.44;5074829;28;20052;-64
2022/08/21 03:09:27;;;;;;;7.85;7.10;;;;;;;12.55;100.00;101599.28;5057939;28;20056;-64
2022/08/21 03:11:53;;;;;;;9.25;8.40;;;;;;;12.47;100.00;101597.31;5080121;28;20424;-64
2022/08/21 03:14:18;;;;;;;8.02;7.32;;;;;;;12.48;100.00;101596.47;5088675;28;20480;-64
2022/08/21 03:16:44;;;;;;;7.90;7.18;;;;;;;12.48;100.00;101598.19;5073360;28;20082;-64
2022/08/21 03:19:09;;;;;;;11.48;7.43;;;;;;;12.48;100.00;101606.88;5085129;28;20026;-64
2022/08/21 03:21:34;;;;;;;9.50;7.53;;;;;;;12.47;100.00;101597.31;5086143;28;20019;-64
2022/08/21 03:24:00;;;;;;;8.10;7.25;;;;;;;12.44;100.00;101591.09;5088801;28;20043;-64
2022/08/21 03:26:25;;;;;;;8.73;8.02;;;;;;;12.44;100.00;101592.00;5088477;28;20482;-64
2022/08/21 03:28:51;;;;;;;9.73;8.90;;;;;;;12.43;100.00;101590.22;5088768;28;20102;-64
2022/08/21 03:31:17;;;;;;;10.85;9.70;;;;;;;12.43;100.00;101590.22;5087833;28;20020;-64
2022/08/21 03:33:42;;;;;;;12.15;10.90;;;;;;;12.44;100.00;101586.81;5086288;28;20028;-64
2022/08/21 03:36:10;;;;;;;10.52;9.52;;;;;;;12.45;100.00;101583.38;5088212;28;20484;-64
2022/08/21 03:38:37;;;;;;;10.27;9.20;;;;;;;12.49;100.00;101587.84;5087881;28;20030;-64
2022/08/21 03:41:04;;;;;;;10.60;9.57;;;;;;;12.55;100.00;101589.78;5087901;28;20494;-64
2022/08/21 03:43:31;;;;;;;10.93;8.98;;;;;;;12.57;100.00;101579.44;5088097;28;20024;-64
2022/08/21 03:45:56;;;;;;;12.27;10.25;;;;;;;12.60;100.00;101587.34;5082534;28;20058;-64
2022/08/21 03:48:22;;;;;;;11.18;10.18;;;;;;;12.60;100.00;101587.34;5082389;28;20028;-64
2022/08/21 03:50:49;;;;;;;14.30;11.07;;;;;;;12.63;100.00;101589.19;5088093;28;20107;-65
2022/08/21 03:53:15;;;;;;;15.73;11.05;;;;;;;12.62;100.00;101590.91;5087767;28;20023;-64
2022/08/21 03:55:41;;;;;;;11.70;10.57;;;;;;;12.64;100.00;101583.13;5087803;28;20024;-64
2022/08/21 03:58:07;;;;;;;10.95;10.05;;;;;;;12.65;100.00;101583.19;5088238;28;20434;-64
2022/08/21 04:00:33;;;;;;;12.27;10.98;;;;;;;12.64;100.00;101577.94;5087976;28;20028;-64
2022/08/21 04:02:58;;;;;;;12.00;10.90;;;;;;;12.63;100.00;101582.25;5088184;28;20028;-65
2022/08/21 04:05:26;;;;;;;11.90;10.65;;;;;;;12.65;100.00;101579.69;5087452;28;20469;-64
2022/08/21 04:08:00;;;;;;;11.52;10.43;;;;;;;12.64;100.00;101581.44;5088693;28;20391;-64
2022/08/21 04:10:28;;;;;;;13.43;10.93;;;;;;;12.63;100.00;101584.84;5087769;28;20040;-64
2022/08/21 04:12:54;;;;;;;13.45;10.93;;;;;;;12.64;100.00;101583.13;5088511;28;20376;-64
2022/08/21 04:15:20;;;;;;;13.00;10.35;;;;;;;12.64;100.00;101589.22;5087759;28;20024;-64
2022/08/21 04:17:46;;;;;;;12.63;9.85;;;;;;;12.64;100.00;101583.13;5087618;28;20039;-64
2022/08/21 04:20:12;;;;;;;11.75;10.45;;;;;;;12.65;100.00;101585.78;5082481;28;20395;-64
2022/08/21 04:22:37;;;;;;;12.18;10.90;;;;;;;12.64;100.00;101589.22;5087470;28;20490;-65
2022/08/21 04:25:03;;;;;;;11.65;10.52;;;;;;;12.65;100.00;101593.59;5086613;28;20367;-64
2022/08/21 04:27:28;;;;;;;12.85;10.52;;;;;;;12.66;100.00;101597.97;5085526;28;20107;-64
2022/08/21 04:29:53;;;;;;;11.38;10.18;;;;;;;12.69;100.00;101592.88;5085973;28;20036;-65
2022/08/21 04:32:25;;;;;;;9.50;8.60;;;;;;;12.66;100.00;101603.19;5085772;28;20480;-64
2022/08/21 04:34:58;;;;;;;10.50;9.40;;;;;;;12.64;100.00;101598.75;5084941;28;20028;-64
2022/08/21 04:37:23;;;;;;;11.68;10.00;;;;;;;12.64;100.00;101603.94;5087728;28;20476;-64
2022/08/21 04:39:48;;;;;;;10.55;9.43;;;;;;;12.60;100.00;101603.84;5075236;28;20147;-64
2022/08/21 04:42:14;;;;;;;12.27;10.20;;;;;;;12.59;100.00;101611.59;5076955;28;20056;-64
2022/08/21 04:44:40;;;;;;;12.23;9.50;;;;;;;12.56;100.00;101609.75;5087505;28;20032;-65
2022/08/21 04:47:06;;;;;;;11.50;9.80;;;;;;;12.54;100.00;101613.13;5086960;28;20032;-64
2022/08/21 04:49:32;;;;;;;12.10;9.13;;;;;;;12.52;100.00;101604.41;5087582;28;20173;-64
2022/08/21 04:51:58;;;;;;;10.85;9.85;;;;;;;12.50;100.00;101601.75;5085078;28;20110;-64
2022/08/21 04:54:23;;;;;;;11.95;9.60;;;;;;;12.51;100.00;101613.00;5075745;28;20024;-64
2022/08/21 04:57:03;;;;;;;10.25;9.25;;;;;;;12.51;100.00;101603.50;5087117;28;20020;-64
2022/08/21 04:59:39;;;;;;;10.23;9.25;;;;;;;12.51;100.00;101610.41;5080072;28;20023;-64
2022/08/21 05:02:08;;;;;;;10.88;9.40;;;;;;;12.48;100.00;101612.06;5086490;28;20060;-64
2022/08/21 05:04:38;;;;;;;12.48;10.55;;;;;;;12.48;100.00;101612.06;5087727;28;20030;-64
2022/08/21 05:07:07;;;;;;;11.63;10.07;;;;;;;12.48;100.00;101608.59;5086963;28;20358;-64
2022/08/21 05:09:33;;;;;;;11.73;9.90;;;;;;;12.48;100.00;101613.78;5087413;28;20403;-64
2022/08/21 05:12:02;;;;;;;10.23;9.25;;;;;;;12.51;100.00;101618.22;5087290;28;20479;-64
2022/08/21 05:14:27;;;;;;;11.20;10.15;;;;;;;12.53;100.00;101611.34;5087165;28;20031;-64
2022/08/21 05:16:53;;;;;;;11.43;8.40;;;;;;;12.55;100.00;101615.78;5087441;28;20028;-64
2022/08/21 05:19:18;;;;;;;10.80;8.82;;;;;;;12.63;100.00;101628.19;5089386;28;20562;-64
2022/08/21 05:21:45;;;;;;;11.38;9.05;;;;;;;12.70;100.00;101620.63;5089936;28;20051;-64
2022/08/21 05:24:11;;;;;;;9.93;8.60;;;;;;;12.78;100.00;101620.03;5089936;28;20028;-64
2022/08/21 05:26:37;;;;;;;8.73;7.97;;;;;;;12.86;100.00;101621.22;5090428;28;20020;-65
2022/08/21 05:29:03;;;;;;;9.00;8.05;;;;;;;12.95;100.00;101621.50;5090262;28;20050;-65
2022/08/21 05:31:29;;;;;;;10.52;7.78;;;;;;;13.05;100.00;101625.31;5089738;28;20103;-64
2022/08/21 05:33:54;;;;;;;9.52;7.13;;;;;;;13.14;100.00;101631.66;5089920;28;20524;-64
2022/08/21 05:36:19;;;;;;;12.10;8.57;;;;;;;13.22;100.00;101625.00;5090042;28;20035;-64
2022/08/21 05:38:45;;;;;;;10.60;7.00;;;;;;;13.31;100.00;101624.44;5087880;28;20383;-64
2022/08/21 05:41:10;;;;;;;8.35;6.35;;;;;;;13.40;100.00;101618.66;5089976;28;20080;-64
2022/08/21 05:43:36;;;;;;;9.23;5.57;;;;;;;13.47;100.00;101622.31;5090403;28;20028;-64
2022/08/21 05:46:05;;;;;;;8.52;5.57;;;;;;;13.56;100.00;101620.91;5089014;28;20069;-64
2022/08/21 05:48:33;;;;;;;6.93;5.72;;;;;;;13.64;100.00;101623.78;5090109;28;20048;-64
2022/08/21 05:51:05;;;;;;;8.65;5.40;;;;;;;13.75;100.00;101629.34;5089882;28;20466;-64
2022/08/21 05:53:30;;;;;;;11.98;4.85;;;;;;;13.85;100.00;101627.03;5089481;28;20516;-65
2022/08/21 05:55:55;;;;;;;8.10;4.68;;;;;;;13.97;100.00;101629.13;5090025;28;20032;-65
2022/08/21 05:58:22;;;;;;;7.03;3.50;;;;;;;14.05;100.00;101633.72;5089879;28;20024;-65
2022/08/21 06:00:50;;;;;;;7.43;4.72;;;;;;;14.15;100.00;101627.06;5089893;28;20387;-65
2022/08/21 06:03:36;;;;;;;8.02;4.75;;;;;;;14.29;100.00;101630.09;5089509;28;20020;-65
2022/08/21 06:06:02;;;;;;;9.30;4.70;;;;;;;14.39;100.00;101622.53;5053660;28;20095;-66
2022/08/21 06:08:28;;;;;;;7.70;5.22;;;;;;;14.46;100.00;101626.19;5047605;28;20100;-66
2022/08/21 06:10:56;;;;;;;9.18;4.90;;;;;;;14.52;100.00;101626.34;5050077;28;20103;-67
2022/08/21 06:13:22;;;;;;;10.30;4.80;;;;;;;14.62;100.00;101631.00;5048956;28;20024;-66
2022/08/21 06:15:47;;;;;;;7.18;3.45;;;;;;;14.73;100.00;101635.63;5057213;28;20381;-66
2022/08/21 06:18:13;;;;;;;7.13;4.20;;;;;;;14.85;100.00;101632.50;5064962;28;20074;-66
2022/08/21 06:20:39;;;;;;;8.32;3.78;;;;;;;15.00;100.00;101634.63;5056566;28;20036;-66
2022/08/21 06:23:04;;;;;;;8.48;3.30;;;;;;;15.09;100.00;101634.84;5052905;28;20033;-66
2022/08/21 06:25:30;;;;;;;5.90;3.45;;;;;;;15.22;100.00;101635.16;5047860;28;20278;-65
2022/08/21 06:28:05;;;;;;;7.90;3.67;;;;;;;15.35;100.00;101626.81;5049809;28;20032;-65
2022/08/21 06:30:31;;;;;;;6.00;3.22;;;;;;;15.52;100.00;101633.28;5054321;28;20477;-64
2022/08/21 06:32:56;;;;;;;6.45;3.10;;;;;;;15.69;100.00;101631.97;5049544;28;20039;-64
2022/08/21 06:35:21;;;;;;;7.63;4.30;;;;;;;15.83;100.00;101634.03;5049036;28;20021;-64
2022/08/21 06:37:46;;;;;;;7.63;3.97;;;;;;;15.93;100.00;101636.00;5050563;28;20065;-64
2022/08/21 06:40:12;;;;;;;7.80;4.00;;;;;;;16.05;100.00;101635.41;5056816;28;20036;-64
2022/08/21 06:42:37;;;;;;;7.55;3.75;;;;;;;16.15;100.00;101636.50;5054776;28;20149;-64
2022/08/21 06:45:04;;;;;;;7.25;3.85;;;;;;;16.32;100.00;101629.00;5065601;28;20045;-65
2022/08/21 06:47:29;;;;;;;8.77;3.72;;;;;;;16.46;100.00;101636.22;5079598;28;20028;-64
2022/08/21 06:49:54;;;;;;;8.02;3.40;;;;;;;16.65;100.00;101637.50;5067182;28;20031;-64
2022/08/21 06:52:19;;;;;;;8.65;3.88;;;;;;;16.86;100.00;101640.47;5066940;28;20020;-65
2022/08/21 06:54:45;;;;;;;8.82;3.90;;;;;;;17.05;100.00;101636.47;5069074;28;20460;-65
2022/08/21 06:57:10;;;;;;;7.18;3.42;;;;;;;17.25;100.00;101634.22;5068278;28;20025;-65
2022/08/21 06:59:35;;;;;;;9.20;4.20;;;;;;;17.35;99.96;101639.63;5077576;28;20024;-65
2022/08/21 07:02:01;;;;;;;8.40;3.50;;;;;;;17.54;99.70;101638.16;5073100;28;20032;-65
2022/08/21 07:04:26;;;;;;;7.53;4.50;;;;;;;17.76;98.89;101635.88;5079474;28;20024;-65
2022/08/21 07:06:52;;;;;;;5.13;3.20;;;;;;;17.96;98.59;101632.66;5068441;28;20032;-65
2022/08/21 07:09:17;;;;;;;7.82;4.20;;;;;;;18.13;96.34;101631.13;5073112;28;20060;-65
2022/08/21 07:11:53;;;;;;;8.25;3.42;;;;;;;18.30;95.68;101622.63;5087165;28;20031;-65
2022/08/21 07:14:18;;;;;;;11.93;3.78;;;;;;;18.35;94.97;101628.81;5082297;28;20038;-65
2022/08/21 07:16:43;;;;;;;8.13;3.78;;;;;;;18.56;94.77;101629.06;5064521;28;20017;-65
2022/08/21 07:19:09;;;;;;;11.60;3.75;;;;;;;18.70;93.94;101626.59;5063554;28;20029;-65
2022/08/21 07:21:34;;;;;;;5.88;3.20;;;;;;;18.77;93.83;101627.53;5065043;28;20452;-65
2022/08/21 07:23:59;;;;;;;9.10;3.28;;;;;;;19.02;93.19;101618.13;5064160;28;20032;-65
2022/08/21 07:26:25;;;;;;;7.90;3.75;;;;;;;19.16;91.66;101623.53;5051870;28;20059;-65
2022/08/21 07:28:51;;;;;;;12.00;4.28;;;;;;;19.37;90.47;101627.22;5059065;28;20082;-65
2022/08/21 07:31:18;;;;;;;8.60;3.78;;;;;;;19.57;88.96;101623.88;5055127;28;20087;-65
2022/08/21 07:33:44;;;;;;;7.88;3.97;;;;;;;19.79;89.24;101622.25;5047675;28;20063;-65
2022/08/21 07:36:10;;;;;;;10.93;4.18;;;;;;;19.86;87.99;101628.41;5052053;28;20509;-65
2022/08/21 07:38:35;;;;;;;8.23;3.55;;;;;;;19.71;87.45;101633.56;5049150;28;20040;-65
2022/08/21 07:41:02;;;;;;;9.32;3.40;;;;;;;19.47;89.07;101616.75;5054455;28;20024;-65
2022/08/21 07:43:29;;;;;;;8.98;3.40;;;;;;;19.36;91.06;101627.19;5060548;28;20060;-65
2022/08/21 07:45:54;;;;;;;8.43;3.67;;;;;;;19.45;91.59;101629.91;5050491;28;20048;-65
2022/08/21 07:48:21;;;;;;;8.70;4.03;;;;;;;19.77;90.66;101623.97;5048445;28;20024;-65
2022/08/21 07:50:47;;;;;;;9.85;4.25;;;;;;;20.16;89.15;101632.09;5048569;28;20090;-65
2022/08/21 07:53:13;;;;;;;8.63;3.53;;;;;;;20.58;85.37;101622.59;5047761;28;20455;-65
2022/08/21 07:55:38;;;;;;;6.68;3.22;;;;;;;20.97;82.27;101620.06;5049868;28;20238;-65
2022/08/21 07:58:03;;;;;;;10.00;2.95;;;;;;;21.21;81.31;101623.56;5049695;28;20035;-65
2022/08/21 08:00:30;;;;;;;6.65;2.67;;;;;;;21.22;80.73;101620.06;5050606;28;20029;-65
2022/08/21 08:02:56;;;;;;;9.63;3.13;;;;;;;21.35;79.48;101626.22;5050322;28;20429;-65
2022/08/21 08:05:26;;;;;;;8.50;2.72;;;;;;;21.52;78.07;101620.00;5055950;28;20357;-65
2022/08/21 08:07:52;;;;;;;7.15;2.58;;;;;;;21.74;77.46;101618.22;5058510;28;20481;-65
2022/08/21 08:10:18;;;;;;;7.10;2.92;;;;;;;22.01;76.30;101616.44;5047097;28;20100;-65
2022/08/21 08:12:44;;;;;;;9.35;3.13;;;;;;;22.26;75.93;101616.31;5055593;28;20476;-65
2022/08/21 08:15:13;;;;;;;8.55;3.30;;;;;;;22.53;74.05;101619.69;5050688;28;20524;-65
2022/08/21 08:17:39;;;;;;;9.65;3.08;;;;;;;22.65;71.86;101616.13;5063540;28;20042;-65
2022/08/21 08:20:09;;;;;;;8.57;2.97;;;;;;;22.95;72.97;101621.22;5059004;28;20056;-65
2022/08/21 08:22:37;;;;;;;6.18;2.75;;;;;;;23.15;70.79;101622.81;5050946;28;20488;-65
2022/08/21 08:25:04;;;;;;;7.35;2.17;;;;;;;23.32;69.36;101621.78;5047078;28;20029;-65
2022/08/21 08:27:30;;;;;;;8.07;2.60;;;;;;;23.35;68.92;101619.97;5050649;28;20495;-65
2022/08/21 08:29:55;;;;;;;8.63;2.83;;;;;;;23.53;68.55;101622.50;5054312;28;20020;-65
2022/08/21 08:32:21;;;;;;;10.63;2.97;;;;;;;23.53;67.91;101618.06;5067448;28;20036;-65
2022/08/21 08:34:48;;;;;;;6.43;2.40;;;;;;;23.67;67.00;101620.59;5067886;28;20052;-65
2022/08/21 08:37:14;;;;;;;7.60;2.67;;;;;;;23.54;66.93;101611.03;5067049;28;20037;-65
2022/08/21 08:39:40;;;;;;;7.30;2.60;;;;;;;23.72;67.51;101608.19;5067391;28;20039;-65
2022/08/21 08:42:15;;;;;;;7.82;2.40;;;;;;;23.66;66.96;101607.34;5061160;28;20044;-65
2022/08/21 08:44:42;;;;;;;7.38;2.25;;;;;;;23.74;65.31;101601.13;5056886;28;20151;-65
2022/08/21 08:47:10;;;;;;;8.38;2.83;;;;;;;23.77;66.48;101608.13;5051161;28;20123;-65
2022/08/21 08:50:07;;;;;;;6.70;2.67;;;;;;;23.81;65.03;101601.91;5055160;28;20029;-65
2022/08/21 08:52:42;;;;;;;10.27;2.30;;;;;;;24.01;66.10;101597.25;5067006;28;20051;-65
2022/08/21 08:55:12;;;;;;;4.07;2.03;;;;;;;23.94;65.61;101597.34;5071276;28;20016;-65
2022/08/21 08:57:39;;;;;;;6.88;2.15;;;;;;;23.77;65.88;101594.91;5066395;28;20024;-65
2022/08/21 09:00:10;;;;;;;8.02;2.42;;;;;;;23.94;67.24;101589.41;5064258;28;20034;-65
2022/08/21 09:02:38;;;;;;;5.75;2.05;;;;;;;24.04;66.63;101576.94;5071119;28;20024;-65
2022/08/21 09:05:05;;;;;;;7.47;2.38;;;;;;;24.29;64.57;101581.03;5070800;28;20468;-65
2022/08/21 09:07:52;;;;;;;7.15;1.95;;;;;;;24.37;63.60;101578.28;5070296;28;20028;-65
2022/08/21 09:10:22;;;;;;;6.75;2.30;;;;;;;24.35;63.05;101575.66;5071056;28;20032;-65
2022/08/21 09:13:11;;;;;;;4.75;1.92;;;;;;;24.23;63.75;101571.44;5070803;28;20047;-66
2022/08/21 09:15:45;;;;;;;9.95;2.25;;;;;;;24.09;63.68;101575.09;5071839;28;20036;-65
2022/08/21 09:18:20;;;;;;;5.85;2.15;;;;;;;24.11;63.12;101573.31;5051891;28;20021;-65
2022/08/21 09:21:23;;;;;;;6.97;2.20;;;;;;;23.81;61.81;101574.56;5065726;28;20028;-65
2022/08/21 09:24:02;;;;;;;6.93;1.90;;;;;;;23.68;63.08;101576.47;5057048;28;20025;-65
2022/08/21 09:26:54;;;;;;;8.63;1.95;;;;;;;23.66;63.24;101576.50;5058019;28;20472;-65
2022/08/21 09:29:24;;;;;;;6.57;1.73;;;;;;;23.65;63.97;101571.22;5066087;28;20111;-65
2022/08/21 09:31:49;;;;;;;7.18;1.88;;;;;;;23.53;65.88;101575.75;5078605;28;20050;-65
2022/08/21 09:34:26;;;;;;;5.97;1.90;;;;;;;23.51;64.52;101572.28;5071010;28;20012;-65
2022/08/21 09:36:51;;;;;;;6.45;1.80;;;;;;;23.20;64.45;101576.06;5071869;28;20285;-65
2022/08/21 09:39:27;;;;;;;7.07;1.70;;;;;;;23.03;64.69;101584.13;5070300;28;20096;-66
2022/08/21 09:42:03;;;;;;;6.03;1.80;;;;;;;22.99;65.76;101580.66;5084261;28;20051;-65
2022/08/21 09:44:33;;;;;;;6.05;1.95;;;;;;;22.95;65.38;101588.63;5090171;28;20035;-65
2022/08/21 09:46:58;;;;;;;6.10;1.77;;;;;;;22.84;64.85;101586.94;5090404;28;20172;-65
2022/08/21 09:49:29;;;;;;;4.03;1.40;;;;;;;22.81;65.90;101584.31;5090473;28;20552;-65
2022/08/21 09:51:55;;;;;;;3.75;1.35;;;;;;;22.91;66.22;101586.00;5089489;28;20039;-65
2022/08/21 09:54:28;;;;;;;7.65;1.48;;;;;;;23.08;63.52;101582.31;5090402;28;20096;-65
2022/08/21 09:59:46;;;;;;;3.80;1.35;;;;;;;23.44;61.50;101575.88;5070096;28;20098;-65
2022/08/21 10:02:32;;;;;;;5.22;1.42;;;;;;;23.59;61.04;101575.69;5069468;28;20840;-65
2022/08/21 10:04:59;;;;;;;5.90;1.77;;;;;;;23.75;60.22;101571.09;5068224;28;20021;-65
2022/08/21 10:07:27;;;;;;;5.03;1.73;;;;;;;23.78;59.47;101571.97;5069376;28;20021;-65
2022/08/21 10:10:15;;;;;;;4.88;1.92;;;;;;;23.88;59.64;101565.66;5070064;28;20051;-65
2022/08/21 10:12:51;;;;;;;4.72;1.15;;;;;;;23.89;60.51;101571.84;5068199;28;20020;-65
2022/08/21 10:15:34;;;;;;;5.93;1.73;;;;;;;23.81;57.82;101569.28;5069436;28;20056;-65
2022/08/21 10:18:27;;;;;;;4.50;1.70;;;;;;;23.71;59.73;101573.81;5069894;28;20385;-65
2022/08/21 10:21:04;;;;;;;7.35;2.10;;;;;;;23.68;60.23;101569.44;5066071;28;20489;-65
2022/08/21 10:24:10;;;;;;;5.30;1.52;;;;;;;23.56;61.03;101574.84;5060507;28;20089;-65
2022/08/21 10:26:45;;;;;;;4.88;1.58;;;;;;;23.49;61.62;101589.94;5057740;28;20542;-65
2022/08/21 10:29:21;;;;;;;5.55;1.80;;;;;;;23.32;60.85;101575.06;5069255;28;20040;-65
2022/08/21 10:32:22;;;;;;;5.38;1.55;;;;;;;23.37;60.99;101580.28;5069598;28;20024;-65
2022/08/21 10:35:06;;;;;;;;;;;;;;;23.36;59.98;101575.91;5069481;28;20016;-65
2022/08/21 10:37:50;;;;;;;4.60;1.73;;;;;;;23.36;59.42;101578.56;5063121;28;20017;-65
2022/08/21 10:40:15;;;;;;;5.00;1.70;;;;;;;23.25;59.58;101571.63;5065288;28;20028;-65
2022/08/21 10:43:03;;;;;;;3.97;1.33;;;;;;;23.10;60.75;101567.34;5069354;28;20078;-65
2022/08/21 10:46:06;;;;;;;5.07;1.90;;;;;;;23.13;59.43;101571.72;5054429;28;20021;-63
2022/08/21 10:48:43;;;;;;;4.18;1.70;;;;;;;23.38;59.86;101576.78;5068780;28;20310;-62
2022/08/21 10:51:32;;;;;;;5.43;2.10;;;;;;;23.43;59.28;101568.81;5057371;28;20025;-63
2022/08/21 10:54:12;;;;;;;5.18;1.98;;;;;;;23.49;59.12;101569.63;5067088;28;20031;-63
2022/08/21 10:56:41;;;;;;;2.27;1.40;;;;;;;23.60;60.11;101566.84;5072482;28;20383;-63
2022/08/21 10:59:26;;;;;;;3.75;1.42;;;;;;;23.45;58.78;101564.41;5086026;28;20744;-63
2022/08/21 11:02:20;;;;;;;3.88;1.63;;;;;;;23.46;60.40;101559.09;5074962;28;20086;-63
2022/08/21 11:05:05;;;;;;;4.63;1.60;;;;;;;23.43;58.27;101564.41;5082141;28;20549;-62
2022/08/21 11:07:37;;;;;;;5.57;1.60;;;;;;;23.41;57.83;101566.16;5061338;28;20434;-63
2022/08/21 11:10:16;;;;;;;3.75;1.27;;;;;;;23.45;59.98;101565.28;5053276;28;20071;-63
2022/08/21 11:12:48;;;;;;;8.20;2.42;;;;;;;23.48;58.25;101567.88;5065943;28;20460;-63
2022/08/21 11:15:23;;;;;;;4.65;1.90;;;;;;;23.59;60.55;101566.88;5067606;28;20104;-63
2022/08/21 11:17:57;;;;;;;3.55;1.85;;;;;;;23.66;58.10;101563.28;5059753;28;20032;-62
2022/08/21 11:20:32;;;;;;;5.85;2.15;;;;;;;23.81;58.58;101564.00;5067613;28;20111;-63
2022/08/21 11:23:07;;;;;;;5.25;1.92;;;;;;;24.02;58.77;101557.53;5056087;28;20033;-63
2022/08/21 11:25:39;;;;;;;6.15;1.92;;;;;;;24.22;58.04;101565.25;5049426;28;20024;-63
2022/08/21 11:28:20;;;;;;;5.47;1.80;;;;;;;24.29;58.53;101559.84;5054716;28;20028;-63
2022/08/21 11:31:22;;;;;;;5.07;1.55;;;;;;;24.13;55.38;101554.75;5058416;28;20029;-63